Time;durP1;ratioP1;P1;durP2;ratioP2;P2;SDS_P1;SDS_P2;PMS_P1;PMS_P2;Temp;Humidity;BMP_temperature;BMP_pressure;BME280_temperature;BME280_humidity;BME280_pressure;Samples;Min_cycle;Max_cycle;Signal;HPM_P1;HPM_P2
2023/05/04 00:00:29;;;;;;;;;;;;;;;11.46;93.22;99992.00;5095166;28;19981;-41
2023/05/04 00:02:55;;;;;;;;;;;;;;;11.78;92.05;99986.06;5095107;28;20383;-41
2023/05/04 00:05:20;;;;;;;;;;;;;;;11.70;91.96;99985.22;5094680;28;20241;-42
2023/05/04 00:07:45;;;;;;;;;;;;;;;11.63;92.37;99987.09;5094457;28;20337;-42
2023/05/04 00:10:11;;;;;;;;;;;;;;;11.46;93.08;99988.50;5094304;28;19912;-41
2023/05/04 00:12:37;;;;;;;;;;;;;;;11.38;94.46;99991.34;5094317;28;19912;-42
2023/05/04 00:15:03;;;;;;;;;;;;;;;11.40;94.81;99994.63;5094656;28;20383;-42
2023/05/04 00:17:29;;;;;;;;;;;;;;;11.25;96.50;99992.16;5094497;28;19920;-41
2023/05/04 00:19:54;;;;;;;;;;;;;;;11.33;95.52;99991.97;5094284;28;19912;-40
2023/05/04 00:22:19;;;;;;;;;;;;;;;11.49;93.75;99972.91;5094778;28;19955;-41
2023/05/04 00:24:45;;;;;;;;;;;;;;;11.22;96.99;99981.91;5094197;28;19962;-41
2023/05/04 00:27:10;;;;;;;;;;;;;;;11.25;96.81;99978.81;5094379;28;19950;-41
2023/05/04 00:29:35;;;;;;;;;;;;;;;11.45;95.27;99992.19;5094495;28;19916;-41
2023/05/04 00:32:01;;;;;;;;;;;;;;;11.48;93.51;99981.97;5094251;28;20285;-42
2023/05/04 00:34:26;;;;;;;;;;;;;;;11.69;93.79;99980.94;5094108;28;19919;-41
2023/05/04 00:36:51;;;;;;;;;;;;;;;11.70;93.96;99971.09;5094129;28;19935;-41
2023/05/04 00:39:17;;;;;;;;;;;;;;;12.32;92.14;99977.81;5092550;28;20301;-41
2023/05/04 00:41:43;;;;;;;;;;;;;;;12.10;90.00;99982.56;5093739;28;20007;-42
2023/05/04 00:44:08;;;;;;;;;;;;;;;11.85;92.51;99981.56;5094155;28;20341;-41
2023/05/04 00:46:35;;;;;;;;;;;;;;;11.74;93.57;99988.31;5094143;28;19961;-42
2023/05/04 00:49:01;;;;;;;;;;;;;;;11.85;92.44;99989.56;5094150;28;19969;-43
2023/05/04 00:51:26;;;;;;;;;;;;;;;11.73;92.89;99976.03;5093939;28;19912;-42
2023/05/04 00:53:53;;;;;;;;;;;;;;;11.47;94.39;99972.31;5093784;28;19977;-41
2023/05/04 00:56:20;;;;;;;;;;;;;;;11.67;93.87;99969.66;5094005;28;20331;-41
2023/05/04 00:58:45;;;;;;;;;;;;;;;11.49;94.49;99964.13;5093870;28;19912;-41
2023/05/04 01:01:11;;;;;;;;;;;;;;;11.71;93.49;99960.22;5093922;28;19919;-41
2023/05/04 01:03:37;;;;;;;;;;;;;;;11.57;94.10;99971.91;5093604;28;19980;-41
2023/05/04 01:06:17;;;;;;;;;;;;;;;11.48;92.91;99971.28;5093494;28;19959;-41
2023/05/04 01:08:49;;;;;;;;;;;;;;;11.61;92.07;99959.81;5093256;28;19912;-41
2023/05/04 01:11:25;;;;;;;;;;;;;;;11.72;92.30;99963.72;5093529;28;20375;-41
2023/05/04 01:13:51;;;;;;;;;;;;;;;12.10;91.20;99966.56;5093520;28;19920;-41
2023/05/04 01:16:17;;;;;;;;;;;;;;;12.03;89.87;99965.78;5093554;28;19920;-41
2023/05/04 01:18:42;;;;;;;;;;;;;;;11.51;92.77;99964.72;5093250;28;20008;-41
2023/05/04 01:21:08;;;;;;;;;;;;;;;11.29;95.30;99975.56;5093388;28;19912;-41
2023/05/04 01:23:34;;;;;;;;;;;;;;;11.37;95.34;99960.44;5093140;28;19955;-41
2023/05/04 01:26:09;;;;;;;;;;;;;;;11.24;96.10;99961.22;5092833;28;19948;-41
2023/05/04 01:28:40;;;;;;;;;;;;;;;11.48;94.72;99965.13;5093360;28;19923;-41
2023/05/04 01:31:07;;;;;;;;;;;;;;;11.48;95.30;99952.63;5093081;28;20332;-41
2023/05/04 01:33:33;;;;;;;;;;;;;;;11.77;93.77;99955.91;5093077;28;19916;-41
2023/05/04 01:35:58;;;;;;;;;;;;;;;11.75;92.85;99957.97;5093002;28;19958;-42
2023/05/04 01:38:24;;;;;;;;;;;;;;;11.23;95.49;99957.75;5093152;28;19967;-41
2023/05/04 01:40:49;;;;;;;;;;;;;;;11.37;94.97;99945.25;5093195;28;20021;-42
2023/05/04 01:43:14;;;;;;;;;;;;;;;11.45;95.38;99953.03;5092908;28;19935;-42
2023/05/04 01:45:40;;;;;;;;;;;;;;;11.73;94.66;99957.38;5093243;28;20006;-42
2023/05/04 01:48:05;;;;;;;;;;;;;;;11.72;92.80;99955.72;5092918;28;19918;-42
2023/05/04 01:50:30;;;;;;;;;;;;;;;11.28;95.83;99941.94;5092753;28;19912;-42
2023/05/04 01:52:56;;;;;;;;;;;;;;;11.50;93.85;99939.13;5091481;28;20406;-42
2023/05/04 01:55:21;;;;;;;;;;;;;;;11.38;95.24;99946.06;5092371;28;20429;-42
2023/05/04 01:57:46;;;;;;;;;;;;;;;11.47;95.83;99955.50;5092676;28;19912;-41
2023/05/04 02:00:15;;;;;;;;;;;;;;;11.45;95.46;99947.72;5092603;28;19916;-41
2023/05/04 02:02:40;;;;;;;;;;;;;;;11.71;93.48;99951.41;5092488;28;19947;-41
2023/05/04 02:05:06;;;;;;;;;;;;;;;11.76;93.59;99964.13;5092398;28;19947;-42
2023/05/04 02:07:31;;;;;;;;;;;;;;;11.81;92.60;99967.00;5092342;28;19916;-41
2023/05/04 02:09:56;;;;;;;;;;;;;;;11.80;91.97;99960.81;5092300;28;19951;-41
2023/05/04 02:12:21;;;;;;;;;;;;;;;11.86;92.16;99961.84;5092338;28;19966;-42
2023/05/04 02:14:47;;;;;;;;;;;;;;;11.80;92.71;99965.34;5092342;28;19912;-41
2023/05/04 02:17:12;;;;;;;;;;;;;;;11.85;91.91;99961.03;5092224;28;20372;-41
2023/05/04 02:19:37;;;;;;;;;;;;;;;12.00;91.77;99950.19;5092049;28;20057;-41
2023/05/04 02:22:03;;;;;;;;;;;;;;;11.96;91.86;99966.81;5092076;28;19969;-42
2023/05/04 02:24:28;;;;;;;;;;;;;;;11.78;92.54;99959.41;5092010;28;19916;-42
2023/05/04 02:26:53;;;;;;;;;;;;;;;11.63;93.78;99968.44;5089075;28;19927;-41
2023/05/04 02:29:19;;;;;;;;;;;;;;;11.67;94.06;99964.34;5092364;28;19917;-42
2023/05/04 02:31:44;;;;;;;;;;;;;;;11.62;93.69;99961.44;5098807;28;19935;-41
2023/05/04 02:34:09;;;;;;;;;;;;;;;11.76;93.59;99961.44;5091650;28;19912;-41
2023/05/04 02:36:34;;;;;;;;;;;;;;;12.01;92.05;99957.13;5091673;28;19916;-41
2023/05/04 02:39:00;;;;;;;;;;;;;;;11.88;91.33;99959.78;5091772;28;19991;-41
2023/05/04 02:41:25;;;;;;;;;;;;;;;11.64;93.34;99972.72;5091632;28;19920;-41
2023/05/04 02:43:51;;;;;;;;;;;;;;;11.74;93.22;99970.47;5091716;28;19912;-41
2023/05/04 02:46:18;;;;;;;;;;;;;;;11.46;94.61;99970.69;5091754;28;20276;-42
2023/05/04 02:48:43;;;;;;;;;;;;;;;11.80;93.63;99974.16;5091666;28;19923;-42
2023/05/04 02:51:08;;;;;;;;;;;;;;;11.76;93.00;99986.25;5091751;28;19912;-42
2023/05/04 02:53:34;;;;;;;;;;;;;;;11.55;93.17;99982.75;5091716;28;20429;-42
2023/05/04 02:55:59;;;;;;;;;;;;;;;11.66;93.67;99985.84;5086994;28;20375;-41
2023/05/04 02:58:24;;;;;;;;;;;;;;;11.74;92.93;99981.13;5091506;28;19984;-42
2023/05/04 03:00:54;;;;;;;;;;;;;;;11.98;91.29;99997.56;5080907;28;19916;-41
2023/05/04 03:03:19;;;;;;;;;;;;;;;11.92;91.68;99983.22;5072615;28;19916;-42
2023/05/04 03:05:45;;;;;;;;;;;;;;;11.72;92.52;99971.72;5084434;28;19926;-42
2023/05/04 03:08:10;;;;;;;;;;;;;;;12.04;91.79;99986.06;5090790;28;20229;-42
2023/05/04 03:10:35;;;;;;;;;;;;;;;11.99;91.98;99990.38;5084534;28;19938;-42
2023/05/04 03:13:04;;;;;;;;;;;;;;;12.17;90.54;100003.09;5091696;28;19912;-43
2023/05/04 03:15:30;;;;;;;;;;;;;;;11.59;92.34;99991.16;5091260;28;19951;-42
2023/05/04 03:17:55;;;;;;;;;;;;;;;11.39;94.23;100001.00;5090866;28;19947;-42
2023/05/04 03:20:21;;;;;;;;;;;;;;;11.30;95.21;100005.69;5087909;28;20023;-42
2023/05/04 03:22:46;;;;;;;;;;;;;;;11.72;93.47;100004.50;5091124;28;20356;-42
2023/05/04 03:25:11;;;;;;;;;;;;;;;11.93;92.00;100002.69;5077428;28;19966;-42
2023/05/04 03:27:37;;;;;;;;;;;;;;;12.04;91.24;99998.59;5088120;28;20354;-42
2023/05/04 03:30:02;;;;;;;;;;;;;;;11.93;91.45;100008.84;5076615;28;19920;-41
2023/05/04 03:32:27;;;;;;;;;;;;;;;11.52;93.30;100014.34;5084422;28;19962;-41
2023/05/04 03:34:53;;;;;;;;;;;;;;;11.91;92.39;100016.22;5088212;28;20046;-41
2023/05/04 03:37:18;;;;;;;;;;;;;;;11.83;91.85;100015.59;5090852;28;20376;-36
2023/05/04 03:39:43;;;;;;;;;;;;;;;11.67;92.04;100007.00;5090675;28;20011;-36
2023/05/04 03:42:08;;;;;;;;;;;;;;;12.00;90.97;100008.03;5090014;28;20338;-41
2023/05/04 03:44:34;;;;;;;;;;;;;;;12.06;89.33;100012.56;5090282;28;19919;-42
2023/05/04 03:46:59;;;;;;;;;;;;;;;11.99;90.78;100001.88;5090948;28;19965;-41
2023/05/04 03:49:25;;;;;;;;;;;;;;;12.51;89.05;100000.16;5090807;28;20418;-41
2023/05/04 03:51:50;;;;;;;;;;;;;;;12.67;86.36;100003.38;5082483;28;19924;-41
2023/05/04 03:54:15;;;;;;;;;;;;;;;12.86;85.89;99985.66;5078692;28;19920;-42
2023/05/04 03:56:41;;;;;;;;;;;;;;;12.71;86.94;99994.72;5088594;28;19920;-41
2023/05/04 03:59:06;;;;;;;;;;;;;;;13.10;84.03;100008.97;5090175;28;20026;-43
2023/05/04 04:01:31;;;;;;;;;;;;;;;12.89;84.32;100004.75;5089688;28;19916;-41
2023/05/04 04:03:56;;;;;;;;;;;;;;;13.17;84.39;100010.78;5090201;28;20393;-40
2023/05/04 04:06:22;;;;;;;;;;;;;;;13.54;81.98;100017.16;5088673;28;19940;-41
2023/05/04 04:08:47;;;;;;;;;;;;;;;13.65;80.93;99997.75;5087971;28;19912;-42
2023/05/04 04:11:13;;;;;;;;;;;;;;;13.74;80.57;100025.03;5087923;28;19932;-42
2023/05/04 04:13:38;;;;;;;;;;;;;;;13.32;82.10;100005.16;5088178;28;19916;-42
2023/05/04 04:16:03;;;;;;;;;;;;;;;13.51;81.42;100022.94;5090074;28;20368;-42
2023/05/04 04:18:29;;;;;;;;;;;;;;;14.02;80.03;100032.63;5091924;28;19912;-42
2023/05/04 04:20:54;;;;;;;;;;;;;;;14.27;77.74;100029.13;5091757;28;19912;-42
2023/05/04 04:23:20;;;;;;;;;;;;;;;14.52;77.48;100026.38;5091790;28;19912;-42
2023/05/04 04:25:46;;;;;;;;;;;;;;;14.27;76.80;100026.44;5091608;28;19920;-41
2023/05/04 04:28:15;;;;;;;;;;;;;;;13.59;79.05;100021.84;5091684;28;20283;-42
2023/05/04 04:30:41;;;;;;;;;;;;;;;13.13;83.10;100020.25;5092604;28;19912;-42
2023/05/04 04:33:06;;;;;;;;;;;;;;;13.45;81.99;100015.78;5093264;28;20271;-41
2023/05/04 04:35:32;;;;;;;;;;;;;;;13.61;80.87;100025.13;5093367;28;19912;-41
2023/05/04 04:37:57;;;;;;;;;;;;;;;13.59;80.61;100030.69;5093666;28;19962;-41
2023/05/04 04:40:23;;;;;;;;;;;;;;;13.31;81.63;100031.09;5093611;28;19924;-41
2023/05/04 04:42:48;;;;;;;;;;;;;;;13.42;81.22;100041.09;5093720;28;19912;-41
2023/05/04 04:45:14;;;;;;;;;;;;;;;13.11;82.70;100031.16;5092501;28;19912;-42
2023/05/04 04:47:40;;;;;;;;;;;;;;;13.28;82.23;100034.16;5093226;28;19977;-42
2023/05/04 04:50:05;;;;;;;;;;;;;;;13.40;81.29;100043.16;5093009;28;19919;-41
2023/05/04 04:52:32;;;;;;;;;;;;;;;13.45;82.12;100048.66;5092925;28;19912;-42
2023/05/04 04:54:57;;;;;;;;;;;;;;;13.56;80.87;100049.84;5092679;28;19915;-41
2023/05/04 04:57:22;;;;;;;;;;;;;;;13.47;81.72;100049.28;5092585;28;19920;-41
2023/05/04 04:59:47;;;;;;;;;;;;;;;13.51;80.89;100051.53;5092847;28;20030;-41
2023/05/04 05:02:13;;;;;;;;;;;;;;;13.97;79.13;100050.38;5092911;28;19965;-42
2023/05/04 05:04:40;;;;;;;;;;;;;;;14.22;77.13;100055.72;5092943;28;20007;-41
2023/05/04 05:07:07;;;;;;;;;;;;;;;13.98;78.01;100060.06;5093351;28;20303;-41
2023/05/04 05:09:33;;;;;;;;;;;;;;;14.06;77.59;100054.41;5093082;28;19919;-42
2023/05/04 05:11:58;;;;;;;;;;;;;;;13.98;78.36;100052.84;5092370;28;19928;-41
2023/05/04 05:14:23;;;;;;;;;;;;;;;14.40;77.27;100042.38;5073131;28;20007;-41
2023/05/04 05:16:49;;;;;;;;;;;;;;;14.07;77.60;100050.72;5072501;28;20363;-40
2023/05/04 05:19:14;;;;;;;;;;;;;;;14.14;78.29;100051.47;5076234;28;19912;-42
2023/05/04 05:21:40;;;;;;;;;;;;;;;13.98;78.80;100052.84;5091687;28;19912;-42
2023/05/04 05:24:08;;;;;;;;;;;;;;;14.35;77.36;100052.91;5091611;28;20002;-42
2023/05/04 05:26:36;;;;;;;;;;;;;;;14.69;75.76;100044.59;5091084;28;19930;-41
2023/05/04 05:29:02;;;;;;;;;;;;;;;14.87;75.97;100049.94;5091262;28;19924;-41
2023/05/04 05:31:27;;;;;;;;;;;;;;;14.81;74.19;100045.47;5091164;28;20007;-41
2023/05/04 05:33:52;;;;;;;;;;;;;;;14.22;77.22;100058.38;5091771;28;19920;-42
2023/05/04 05:36:18;;;;;;;;;;;;;;;13.76;79.06;100060.41;5091940;28;19916;-42
2023/05/04 05:38:43;;;;;;;;;;;;;;;14.12;78.31;100056.22;5092170;28;19973;-42
2023/05/04 05:41:08;;;;;;;;;;;;;;;14.17;77.91;100061.75;5092034;28;20095;-42
2023/05/04 05:43:35;;;;;;;;;;;;;;;13.78;79.13;100061.00;5091906;28;19938;-41
2023/05/04 05:46:01;;;;;;;;;;;;;;;14.10;78.80;100060.16;5091879;28;19916;-42
2023/05/04 05:48:26;;;;;;;;;;;;;;;13.82;79.31;100064.06;5092150;28;20325;-41
2023/05/04 05:50:51;;;;;;;;;;;;;;;14.13;79.75;100068.56;5092137;28;20438;-42
2023/05/04 05:53:17;;;;;;;;;;;;;;;14.62;76.41;100069.59;5092075;28;19916;-42
2023/05/04 05:55:42;;;;;;;;;;;;;;;14.58;75.88;100068.41;5091963;28;20015;-42
2023/05/04 05:58:07;;;;;;;;;;;;;;;14.32;76.16;100080.16;5091831;28;19976;-42
2023/05/04 06:00:32;;;;;;;;;;;;;;;13.76;78.80;100075.63;5092607;28;19923;-42
2023/05/04 06:02:58;;;;;;;;;;;;;;;13.58;80.16;100073.69;5092628;28;19982;-42
2023/05/04 06:05:23;;;;;;;;;;;;;;;14.13;78.79;100081.94;5092611;28;19927;-42
2023/05/04 06:07:48;;;;;;;;;;;;;;;14.24;77.31;100077.72;5091874;28;19966;-41
2023/05/04 06:10:14;;;;;;;;;;;;;;;14.04;79.52;100077.91;5091607;28;20219;-41
2023/05/04 06:12:39;;;;;;;;;;;;;;;14.48;77.29;100079.56;5091751;28;19919;-41
2023/05/04 06:15:05;;;;;;;;;;;;;;;13.86;78.81;100084.00;5091032;28;19918;-41
2023/05/04 06:17:30;;;;;;;;;;;;;;;14.18;78.31;100082.09;5089922;28;20436;-41
2023/05/04 06:19:55;;;;;;;;;;;;;;;14.39;76.63;100080.91;5090364;28;19916;-41
2023/05/04 06:22:21;;;;;;;;;;;;;;;14.70;75.09;100081.03;5090980;28;19912;-41
2023/05/04 06:24:46;;;;;;;;;;;;;;;14.65;75.64;100079.03;5090712;28;20314;-42
2023/05/04 06:27:12;;;;;;;;;;;;;;;14.66;75.92;100080.69;5091012;28;19989;-41
2023/05/04 06:29:39;;;;;;;;;;;;;;;14.80;74.71;100076.00;5091013;28;19919;-41
2023/05/04 06:32:04;;;;;;;;;;;;;;;14.65;75.86;100079.84;5091282;28;19912;-41
2023/05/04 06:34:29;;;;;;;;;;;;;;;14.66;75.87;100084.16;5091224;28;19923;-41
2023/05/04 06:36:55;;;;;;;;;;;;;;;14.45;76.95;100089.91;5091380;28;19924;-41
2023/05/04 06:39:21;;;;;;;;;;;;;;;14.16;77.56;100092.19;5090700;28;19990;-43
2023/05/04 06:41:46;;;;;;;;;;;;;;;13.90;79.14;100085.22;5091350;28;19912;-40
2023/05/04 06:44:11;;;;;;;;;;;;;;;14.17;78.73;100083.16;5091208;28;20355;-42
2023/05/04 06:46:37;;;;;;;;;;;;;;;13.87;79.47;100080.28;5091486;28;19912;-42
2023/05/04 06:49:05;;;;;;;;;;;;;;;13.55;81.35;100077.59;5091070;28;19913;-43
2023/05/04 06:51:31;;;;;;;;;;;;;;;13.85;80.71;100079.69;5090814;28;20220;-42
2023/05/04 06:53:56;;;;;;;;;;;;;;;14.13;79.21;100079.28;5090972;28;19912;-41
2023/05/04 06:56:22;;;;;;;;;;;;;;;14.56;77.84;100077.66;5090554;28;19932;-41
2023/05/04 06:58:49;;;;;;;;;;;;;;;14.79;76.26;100083.22;5090548;28;20298;-41
2023/05/04 07:01:15;;;;;;;;;;;;;;;14.93;75.27;100077.72;5090797;28;20003;-42
2023/05/04 07:03:40;;;;;;;;;;;;;;;14.81;75.70;100083.81;5090663;28;19913;-42
2023/05/04 07:06:06;;;;;;;;;;;;;;;14.60;76.53;100090.41;5091134;28;19912;-41
2023/05/04 07:08:31;;;;;;;;;;;;;;;14.45;76.96;100087.25;5090590;28;19912;-41
2023/05/04 07:10:57;;;;;;;;;;;;;;;14.57;76.43;100087.34;5090239;28;19912;-43
2023/05/04 07:13:22;;;;;;;;;;;;;;;14.58;76.41;100091.66;5090673;28;19919;-42
2023/05/04 07:15:47;;;;;;;;;;;;;;;14.72;76.15;100089.69;5090649;28;19931;-42
2023/05/04 07:18:13;;;;;;;;;;;;;;;14.65;76.41;100090.56;5090654;28;20409;-42
2023/05/04 07:20:40;;;;;;;;;;;;;;;14.75;77.31;100086.53;5090474;28;20340;-42
2023/05/04 07:23:05;;;;;;;;;;;;;;;14.43;77.33;100084.78;5090522;28;19939;-41
2023/05/04 07:25:31;;;;;;;;;;;;;;;14.51;76.19;100089.03;5090246;28;20364;-41
2023/05/04 07:27:57;;;;;;;;;;;;;;;14.32;78.25;100087.34;5090722;28;19916;-42
2023/05/04 07:30:23;;;;;;;;;;;;;;;14.21;77.88;100094.25;5090760;28;19919;-41
2023/05/04 07:32:48;;;;;;;;;;;;;;;14.36;78.28;100078.66;5090188;28;20368;-41
2023/05/04 07:35:14;;;;;;;;;;;;;;;14.66;77.34;100078.00;5088870;28;20007;-41
2023/05/04 07:37:39;;;;;;;;;;;;;;;14.56;77.36;100083.00;5090462;28;19916;-41
2023/05/04 07:40:06;;;;;;;;;;;;;;;14.78;75.91;100086.91;5090365;28;20348;-41
2023/05/04 07:42:31;;;;;;;;;;;;;;;14.91;76.06;100077.94;5090333;28;19946;-41
2023/05/04 07:44:57;;;;;;;;;;;;;;;15.44;73.89;100076.44;5090301;28;19916;-42
2023/05/04 07:47:22;;;;;;;;;;;;;;;15.28;73.54;100082.44;5090021;28;20385;-42
2023/05/04 07:49:47;;;;;;;;;;;;;;;14.94;74.59;100082.00;5090272;28;20281;-41
2023/05/04 07:52:13;;;;;;;;;;;;;;;15.24;74.05;100079.38;5094294;28;20016;-41
2023/05/04 07:54:38;;;;;;;;;;;;;;;15.19;74.15;100087.28;5094551;28;19916;-43
2023/05/04 07:57:03;;;;;;;;;;;;;;;15.07;73.85;100087.22;5094336;28;20037;-42
2023/05/04 07:59:29;;;;;;;;;;;;;;;15.45;73.39;100086.94;5093456;28;20284;-42
2023/05/04 08:01:54;;;;;;;;;;;;;;;15.71;71.47;100095.66;5094242;28;19912;-41
2023/05/04 08:04:20;;;;;;;;;;;;;;;15.61;72.47;100098.06;5094101;28;19912;-41
2023/05/04 08:06:45;;;;;;;;;;;;;;;15.28;73.88;100093.16;5094275;28;19967;-41
2023/05/04 08:09:11;;;;;;;;;;;;;;;15.40;73.91;100092.16;5094377;28;19912;-42
2023/05/04 08:11:38;;;;;;;;;;;;;;;15.44;74.37;100093.34;5094074;28;19912;-42
2023/05/04 08:14:03;;;;;;;;;;;;;;;15.63;72.14;100098.66;5094174;28;19912;-43
2023/05/04 08:16:28;;;;;;;;;;;;;;;15.15;74.16;100100.31;5094074;28;19916;-41
2023/05/04 08:18:55;;;;;;;;;;;;;;;15.24;73.93;100100.81;5094006;28;19947;-42
2023/05/04 08:21:20;;;;;;;;;;;;;;;15.00;74.48;100098.03;5094364;28;19954;-42
2023/05/04 08:23:46;;;;;;;;;;;;;;;15.36;73.40;100092.84;5093987;28;20356;-42
2023/05/04 08:26:11;;;;;;;;;;;;;;;15.51;72.34;100092.44;5093670;28;20358;-40
2023/05/04 08:28:37;;;;;;;;;;;;;;;15.87;71.17;100094.22;5093974;28;19966;-42
2023/05/04 08:31:03;;;;;;;;;;;;;;;16.21;69.77;100099.88;5093796;28;19912;-41
2023/05/04 08:33:29;;;;;;;;;;;;;;;16.23;69.10;100076.31;5092566;28;19984;-40
2023/05/04 08:35:54;;;;;;;;;;;;;;;15.96;69.77;100105.44;5092819;28;20394;-40
2023/05/04 08:38:20;;;;;;;;;;;;;;;15.87;69.95;100101.44;5092993;28;19912;-42
2023/05/04 08:40:45;;;;;;;;;;;;;;;15.62;71.13;100105.88;5092839;28;19912;-42
2023/05/04 08:43:10;;;;;;;;;;;;;;;15.29;73.16;100109.03;5092803;28;19938;-42
2023/05/04 08:45:39;;;;;;;;;;;;;;;15.58;71.21;100107.38;5092753;28;19956;-43
2023/05/04 08:48:08;;;;;;;;;;;;;;;14.92;74.61;100106.34;5092838;28;20418;-42
2023/05/04 08:50:34;;;;;;;;;;;;;;;15.66;71.43;100097.41;5092738;28;20026;-41
2023/05/04 08:53:02;;;;;;;;;;;;;;;15.68;71.59;100096.09;5092460;28;19912;-43
2023/05/04 08:55:29;;;;;;;;;;;;;;;15.76;70.61;100098.53;5092757;28;19923;-42
2023/05/04 08:57:55;;;;;;;;;;;;;;;16.10;68.81;100098.00;5092719;28;19920;-40
2023/05/04 09:00:21;;;;;;;;;;;;;;;16.14;69.01;100097.28;5092653;28;19947;-41
2023/05/04 09:02:47;;;;;;;;;;;;;;;15.85;70.47;100095.50;5092363;28;19913;-41
2023/05/04 09:05:13;;;;;;;;;;;;;;;16.20;69.78;100099.06;5092700;28;19912;-43
2023/05/04 09:07:38;;;;;;;;;;;;;;;16.22;69.63;100098.81;5092560;28;19935;-43
2023/05/04 09:10:05;;;;;;;;;;;;;;;15.58;71.75;100101.22;5092406;28;19935;-42
2023/05/04 09:12:30;;;;;;;;;;;;;;;15.81;70.65;100092.44;5092973;28;20252;-43
2023/05/04 09:14:57;;;;;;;;;;;;;;;16.03;69.93;100093.56;5092737;28;20414;-40
2023/05/04 09:17:26;;;;;;;;;;;;;;;15.92;70.38;100096.22;5092854;28;20352;-41
2023/05/04 09:20:01;;;;;;;;;;;;;;;16.22;69.01;100101.50;5092698;28;20380;-43
2023/05/04 09:22:26;;;;;;;;;;;;;;;16.18;68.88;100100.34;5092819;28;20358;-41
2023/05/04 09:24:52;;;;;;;;;;;;;;;16.12;69.02;100095.91;5093032;28;19912;-42
2023/05/04 09:27:18;;;;;;;;;;;;;;;16.26;69.38;100107.22;5092350;28;20011;-42
2023/05/04 09:29:43;;;;;;;;;;;;;;;16.46;68.01;100099.66;5092110;28;20202;-43
2023/05/04 09:32:14;;;;;;;;;;;;;;;16.44;68.44;100096.38;5092411;28;20354;-42
2023/05/04 09:34:50;;;;;;;;;;;;;;;16.32;69.50;100095.59;5092441;28;19912;-40
2023/05/04 09:37:15;;;;;;;;;;;;;;;16.45;68.94;100086.47;5092011;28;19943;-41
2023/05/04 09:39:51;;;;;;;;;;;;;;;16.12;68.67;100090.53;5092482;28;19955;-40
2023/05/04 09:42:17;;;;;;;;;;;;;;;16.39;68.81;100094.41;5092268;28;19912;-41
2023/05/04 09:44:42;;;;;;;;;;;;;;;16.52;67.76;100087.97;5092580;28;19947;-41
2023/05/04 09:47:08;;;;;;;;;;;;;;;16.67;66.88;100089.38;5092308;28;19919;-41
2023/05/04 09:49:34;;;;;;;;;;;;;;;16.79;66.72;100084.78;5091950;28;19947;-41
2023/05/04 09:52:01;;;;;;;;;;;;;;;16.89;66.08;100085.06;5092242;28;19920;-41
2023/05/04 09:54:28;;;;;;;;;;;;;;;16.83;66.36;100075.25;5091736;28;20019;-42
2023/05/04 09:56:57;;;;;;;;;;;;;;;17.00;66.40;100080.69;5092046;28;20028;-44
2023/05/04 09:59:25;;;;;;;;;;;;;;;17.19;65.53;100078.66;5092204;28;19912;-43
2023/05/04 10:01:51;;;;;;;;;;;;;;;17.07;66.17;100076.00;5092033;28;19912;-43
2023/05/04 10:04:17;;;;;;;;;;;;;;;17.03;66.65;100074.84;5092046;28;20072;-44
2023/05/04 10:06:43;;;;;;;;;;;;;;;16.93;67.31;100080.03;5091673;28;20360;-45
2023/05/04 10:09:10;;;;;;;;;;;;;;;17.11;66.76;100077.16;5091951;28;19963;-44
2023/05/04 10:11:36;;;;;;;;;;;;;;;17.28;66.77;100076.41;5091996;28;19912;-45
2023/05/04 10:14:01;;;;;;;;;;;;;;;17.37;66.34;100078.47;5091167;28;20306;-44
2023/05/04 10:16:39;;;;;;;;;;;;;;;17.40;65.97;100079.84;5091604;28;20018;-44
2023/05/04 10:19:11;;;;;;;;;;;;;;;17.19;67.67;100076.81;5091806;28;19916;-43
2023/05/04 10:21:42;;;;;;;;;;;;;;;17.24;68.01;100070.69;5091705;28;19912;-44
2023/05/04 10:24:07;;;;;;;;;;;;;;;17.32;67.41;100074.88;5091537;28;20026;-44
2023/05/04 10:26:35;;;;;;;;;;;;;;;17.43;67.28;100070.50;5091471;28;19927;-45
2023/05/04 10:29:23;;;;;;;;;;;;;;;17.49;66.92;100073.03;5091604;28;20003;-44
2023/05/04 10:31:48;;;;;;;;;;;;;;;17.33;67.84;100065.75;5091322;28;19954;-43
2023/05/04 10:34:27;;;;;;;;;;;;;;;17.54;67.44;100062.38;5091716;28;19951;-42
2023/05/04 10:36:53;;;;;;;;;;;;;;;17.76;66.50;100070.59;5091165;28;19923;-43
2023/05/04 10:39:19;;;;;;;;;;;;;;;17.52;67.87;100061.81;5091287;28;19912;-42
2023/05/04 10:42:00;;;;;;;;;;;;;;;17.54;68.00;100061.56;5091544;28;19920;-45
2023/05/04 10:44:29;;;;;;;;;;;;;;;17.81;67.80;100061.75;5091324;28;19941;-45
2023/05/04 10:47:05;;;;;;;;;;;;;;;17.71;69.26;100061.59;5091020;28;19994;-42
2023/05/04 10:49:31;;;;;;;;;;;;;;;17.83;68.12;100059.66;5091631;28;19912;-45
2023/05/04 10:52:10;;;;;;;;;;;;;;;18.13;66.19;100059.34;5090808;28;20014;-42
2023/05/04 10:54:36;;;;;;;;;;;;;;;18.43;64.72;100055.50;5091255;28;19916;-42
2023/05/04 10:57:05;;;;;;;;;;;;;;;18.62;64.90;100057.88;5090810;28;19927;-42
2023/05/04 10:59:31;;;;;;;;;;;;;;;18.91;64.28;100050.50;5091253;28;19912;-43
2023/05/04 11:01:56;;;;;;;;;;;;;;;18.62;62.87;100053.34;5091208;28;19923;-43
2023/05/04 11:04:22;;;;;;;;;;;;;;;18.80;62.35;100054.94;5089448;28;19919;-41
2023/05/04 11:07:04;;;;;;;;;;;;;;;18.76;62.76;100046.50;5090782;28;19912;-43
2023/05/04 11:09:40;;;;;;;;;;;;;;;19.20;61.71;100042.19;5090914;28;19999;-42
2023/05/04 11:12:09;;;;;;;;;;;;;;;19.38;62.37;100041.03;5091118;28;19920;-43
2023/05/04 11:14:40;;;;;;;;;;;;;;;19.61;61.62;100051.53;5090765;28;19916;-41
2023/05/04 11:17:06;;;;;;;;;;;;;;;19.84;60.95;100044.19;5090718;28;20015;-44
2023/05/04 11:19:32;;;;;;;;;;;;;;;19.62;60.00;100047.75;5090805;28;19941;-43
2023/05/04 11:21:59;;;;;;;;;;;;;;;19.76;59.90;100042.75;5090858;28;20023;-43
2023/05/04 11:24:25;;;;;;;;;;;;;;;19.90;59.81;100038.56;5090502;28;19912;-43
2023/05/04 11:26:50;;;;;;;;;;;;;;;20.09;59.88;100041.69;5090669;28;20022;-41
2023/05/04 11:29:15;;;;;;;;;;;;;;;19.80;60.24;100045.75;5090505;28;19917;-42
2023/05/04 11:31:43;;;;;;;;;;;;;;;19.94;59.41;100052.38;5090218;28;19959;-42
2023/05/04 11:34:17;;;;;;;;;;;;;;;20.08;57.71;100044.63;5090404;28;19935;-42
2023/05/04 11:36:42;;;;;;;;;;;;;;;20.21;58.00;100041.47;5083552;28;19920;-42
2023/05/04 11:39:07;;;;;;;;;;;;;;;20.28;56.79;100043.97;5090213;28;19920;-42
2023/05/04 11:41:35;;;;;;;;;;;;;;;20.29;56.33;100038.28;5088375;28;20013;-42
2023/05/04 11:44:02;;;;;;;;;;;;;;;20.07;57.71;100043.03;5090502;28;19912;-41
2023/05/04 11:46:27;;;;;;;;;;;;;;;19.93;59.34;100034.53;5090861;28;19923;-42
2023/05/04 11:48:53;;;;;;;;;;;;;;;19.99;59.12;100035.38;5090485;28;19912;-42
2023/05/04 11:51:21;;;;;;;;;;;;;;;19.99;59.19;100030.81;5087038;28;20003;-42
2023/05/04 11:53:46;;;;;;;;;;;;;;;19.98;57.68;100029.16;5090156;28;19916;-42
2023/05/04 11:56:12;;;;;;;;;;;;;;;19.81;58.93;100032.00;5090658;28;19999;-42
2023/05/04 11:58:37;;;;;;;;;;;;;;;19.86;59.68;100034.75;5090765;28;19912;-40
2023/05/04 12:01:03;;;;;;;;;;;;;;;20.04;59.38;100033.53;5089777;28;20007;-41
2023/05/04 12:03:30;;;;;;;;;;;;;;;20.28;58.79;100035.88;5090634;28;19934;-40
2023/05/04 12:05:56;;;;;;;;;;;;;;;19.83;59.57;100027.16;5090862;28;19908;-40
2023/05/04 12:08:26;;;;;;;;;;;;;;;19.96;59.15;100031.31;5091359;28;19970;-40
2023/05/04 12:11:07;;;;;;;;;;;;;;;19.78;59.54;100029.00;5090939;28;19955;-41
2023/05/04 12:13:33;;;;;;;;;;;;;;;19.76;60.12;100026.56;5091394;28;20002;-41
2023/05/04 12:16:06;;;;;;;;;;;;;;;19.74;59.96;100023.28;5088314;28;20028;-40
2023/05/04 12:18:32;;;;;;;;;;;;;;;19.70;60.12;100023.00;5090983;28;19923;-40
2023/05/04 12:21:06;;;;;;;;;;;;;;;19.20;61.70;100016.03;5090224;28;19912;-40
2023/05/04 12:23:31;;;;;;;;;;;;;;;19.09;62.27;100015.09;5081790;28;20011;-40
2023/05/04 12:25:57;;;;;;;;;;;;;;;19.28;61.75;100018.25;5090098;28;19958;-41
2023/05/04 12:28:25;;;;;;;;;;;;;;;19.38;61.50;100012.19;5090462;28;19916;-41
2023/05/04 12:30:51;;;;;;;;;;;;;;;19.27;61.40;100008.56;5090453;28;19912;-41
2023/05/04 12:33:17;;;;;;;;;;;;;;;19.42;60.88;100009.75;5089904;28;19920;-40
2023/05/04 12:35:42;;;;;;;;;;;;;;;19.48;60.63;100003.34;5089285;28;20309;-40